Terminal Aerodrome Forecast
Issued by NWS Buffalo, NY

Home | Current Version | Previous Version | Text Only | Print | Product List | Glossary On
Versions: 1 2 3 4 5 6 7 8 9 10 11 12 13 14 15 16 17 18 19 20 21 22 23 24 25 26 27 28 29 30 31 32 33 34
000
FTUS41 KBUF 231800 AAA
TAFART
TAF AMD
KART 231841Z 2319/2418 06008KT P6SM BKN025
      TEMPO 2319/2321 BKN035
     FM232100 06004KT P6SM BKN035
     FM240000 VRB04KT P6SM SCT060
     FM240600 00000KT P6SM SCT250
      TEMPO 2408/2412 4SM BR=

USA.gov is the U.S. government's official web portal to all federal, state and local government web resources and services.